createdAt,value
2022-11-25T00:01:33.889Z,32.00
2022-11-25T00:04:01.516Z,32.37
2022-11-25T00:06:31.337Z,32.10
2022-11-25T00:09:04.113Z,33.03
2022-11-25T00:11:31.289Z,36.27
2022-11-25T00:13:58.535Z,33.17
2022-11-25T00:16:26.696Z,34.40
2022-11-25T00:18:55.610Z,31.23
2022-11-25T00:21:25.015Z,34.87
2022-11-25T00:24:03.521Z,34.80
2022-11-25T00:26:32.822Z,35.00
2022-11-25T00:29:01.965Z,33.50
2022-11-25T00:31:33.618Z,36.17
2022-11-25T00:34:00.493Z,33.17
2022-11-25T00:36:32.020Z,34.23
2022-11-25T00:39:00.229Z,33.50
2022-11-25T00:41:47.940Z,36.33
2022-11-25T00:44:36.732Z,34.90
2022-11-25T00:47:05.959Z,33.37
2022-11-25T00:49:34.113Z,34.50
2022-11-25T00:52:00.954Z,34.67
2022-11-25T00:54:27.703Z,32.77
2022-11-25T00:56:54.844Z,34.47
2022-11-25T00:59:21.859Z,33.50
2022-11-25T01:01:48.981Z,34.73
2022-11-25T01:04:16.682Z,34.70
2022-11-25T01:06:43.850Z,34.67
2022-11-25T01:09:12.630Z,33.57
2022-11-25T01:11:40.100Z,33.43
2022-11-25T01:14:07.767Z,33.20
2022-11-25T01:16:35.427Z,32.73
2022-11-25T01:19:02.562Z,33.77
2022-11-25T01:21:31.865Z,26.10
2022-11-25T01:24:03.780Z,26.93
2022-11-25T01:26:32.771Z,28.63
2022-11-25T01:29:03.123Z,25.43
2022-11-25T01:31:34.616Z,23.13
2022-11-25T01:34:12.654Z,24.70
2022-11-25T01:36:39.431Z,27.50
2022-11-25T01:39:06.300Z,27.70
2022-11-25T01:41:34.864Z,27.57
2022-11-25T01:44:07.599Z,25.43
2022-11-25T01:47:02.012Z,26.27
2022-11-25T01:49:44.729Z,24.00
2022-11-25T01:52:29.557Z,26.23
2022-11-25T01:54:59.088Z,26.67
2022-11-25T01:57:44.386Z,25.90
2022-11-25T02:00:11.901Z,25.83
2022-11-25T02:02:39.280Z,24.60
2022-11-25T02:05:12.480Z,25.23
2022-11-25T02:07:44.089Z,21.73
2022-11-25T02:10:15.670Z,22.10
2022-11-25T02:12:45.746Z,20.87
2022-11-25T02:15:14.207Z,22.20
2022-11-25T02:17:42.942Z,21.87
2022-11-25T02:20:14.013Z,20.73
2022-11-25T02:22:43.652Z,20.50
2022-11-25T02:25:33.625Z,21.53
2022-11-25T02:28:13.367Z,20.07
2022-11-25T02:30:40.984Z,21.87
2022-11-25T02:33:08.061Z,21.70
2022-11-25T02:35:43.401Z,22.20
2022-11-25T02:38:15.542Z,20.93
2022-11-25T02:40:55.040Z,22.60
2022-11-25T02:43:23.645Z,22.80
2022-11-25T02:46:00.194Z,29.57
2022-11-25T02:48:52.817Z,21.30
2022-11-25T02:51:19.681Z,22.70
2022-11-25T02:53:46.622Z,22.73
2022-11-25T02:56:15.036Z,24.40
2022-11-25T02:58:42.841Z,19.90
2022-11-25T03:01:10.299Z,22.83
2022-11-25T03:03:37.979Z,20.63
2022-11-25T03:06:05.409Z,23.07
2022-11-25T03:08:32.176Z,20.93
2022-11-25T03:10:59.083Z,23.07
2022-11-25T03:13:25.982Z,20.93
2022-11-25T03:15:52.805Z,22.53
2022-11-25T03:18:19.818Z,22.07
2022-11-25T03:20:51.628Z,21.57
2022-11-25T03:23:18.805Z,21.20
2022-11-25T03:25:45.783Z,21.70
2022-11-25T03:28:12.861Z,21.50
2022-11-25T03:30:40.884Z,22.00
2022-11-25T03:33:07.819Z,22.30
2022-11-25T03:35:34.794Z,21.33
2022-11-25T03:38:01.848Z,24.33
2022-11-25T03:40:28.657Z,19.30
2022-11-25T03:42:55.578Z,23.87
2022-11-25T03:45:22.654Z,21.40
2022-11-25T03:47:49.557Z,24.37
2022-11-25T03:50:16.766Z,23.57
2022-11-25T03:52:43.828Z,22.13
2022-11-25T03:55:13.109Z,23.13
2022-11-25T03:57:40.806Z,22.90
2022-11-25T04:00:08.655Z,21.97
2022-11-25T04:02:35.640Z,23.23
2022-11-25T04:05:03.299Z,22.93
2022-11-25T04:07:30.272Z,24.90
2022-11-25T04:09:58.272Z,23.17
2022-11-25T04:12:43.660Z,25.00
2022-11-25T04:15:10.877Z,22.03
2022-11-25T04:17:37.897Z,22.07
2022-11-25T04:20:05.467Z,23.83
2022-11-25T04:22:32.607Z,22.23
2022-11-25T04:24:59.774Z,22.70
2022-11-25T04:27:26.956Z,25.10
2022-11-25T04:29:53.880Z,21.73
2022-11-25T04:32:20.958Z,22.40
2022-11-25T04:34:47.865Z,22.47
2022-11-25T04:37:14.612Z,23.13
2022-11-25T04:39:41.493Z,20.57
2022-11-25T04:42:26.978Z,22.17
2022-11-25T04:45:20.832Z,22.90
2022-11-25T04:47:42.698Z,23.20
2022-11-25T04:50:17.091Z,24.97
2022-11-25T04:52:44.109Z,25.00
2022-11-25T04:55:11.054Z,25.93
2022-11-25T04:57:39.266Z,24.83
2022-11-25T05:00:07.107Z,24.40
2022-11-25T05:02:34.123Z,24.03
2022-11-25T05:05:01.692Z,24.93
2022-11-25T05:07:29.761Z,23.30
2022-11-25T05:09:57.205Z,25.07
2022-11-25T05:12:26.897Z,27.27
2022-11-25T05:14:53.879Z,26.50
2022-11-25T05:17:23.664Z,25.57
2022-11-25T05:19:51.291Z,24.97
2022-11-25T05:22:21.976Z,25.13
2022-11-25T05:24:49.192Z,24.67
2022-11-25T05:27:16.920Z,27.57
2022-11-25T05:29:44.179Z,27.07
2022-11-25T05:32:11.804Z,26.60
2022-11-25T05:34:40.693Z,26.37
2022-11-25T05:37:08.542Z,26.03
2022-11-25T05:39:36.807Z,24.17
2022-11-25T05:42:03.878Z,27.83
2022-11-25T05:44:30.911Z,25.90
2022-11-25T05:46:57.842Z,26.37
2022-11-25T05:49:24.715Z,25.50
2022-11-25T05:51:51.574Z,25.30
2022-11-25T05:54:18.384Z,28.23
2022-11-25T05:56:45.353Z,26.33
2022-11-25T05:59:12.229Z,26.87
2022-11-25T06:01:39.010Z,26.93
2022-11-25T06:04:06.833Z,25.03
2022-11-25T06:06:33.800Z,26.60
2022-11-25T06:09:00.950Z,25.43
2022-11-25T06:11:28.053Z,28.43
2022-11-25T06:13:58.000Z,30.50
2022-11-25T06:16:25.520Z,28.43
2022-11-25T06:18:53.544Z,29.23
2022-11-25T06:21:20.666Z,32.90
2022-11-25T06:23:47.924Z,30.73
2022-11-25T06:26:16.003Z,29.90
2022-11-25T06:28:44.438Z,25.93
2022-11-25T06:31:16.529Z,27.33
2022-11-25T06:33:46.579Z,30.07
2022-11-25T06:36:18.825Z,28.23
2022-11-25T06:38:51.595Z,26.30
2022-11-25T06:41:19.701Z,30.20
2022-11-25T06:43:46.799Z,29.83
2022-11-25T06:46:21.167Z,27.87
2022-11-25T06:48:53.816Z,29.43
2022-11-25T06:51:20.950Z,26.97
2022-11-25T06:53:48.309Z,31.17
2022-11-25T06:56:26.485Z,28.43
2022-11-25T06:58:54.639Z,31.70
2022-11-25T07:01:28.084Z,29.37
2022-11-25T07:03:58.412Z,29.07
2022-11-25T07:06:25.693Z,28.93
2022-11-25T07:08:52.578Z,29.07
2022-11-25T07:11:31.807Z,26.43
2022-11-25T07:14:01.996Z,28.20
2022-11-25T07:16:30.616Z,30.07
2022-11-25T07:19:01.924Z,28.27
2022-11-25T07:21:30.815Z,28.20
2022-11-25T07:24:00.593Z,28.17
2022-11-25T07:26:30.650Z,28.30
2022-11-25T07:29:02.958Z,30.63
2022-11-25T07:31:33.871Z,27.83
2022-11-25T07:34:02.443Z,25.73
2022-11-25T07:36:30.529Z,26.87
2022-11-25T07:39:02.285Z,26.33
2022-11-25T07:41:30.110Z,23.90
2022-11-25T07:44:02.745Z,23.33
2022-11-25T07:46:32.354Z,26.63
2022-11-25T07:49:01.889Z,24.07
2022-11-25T07:51:33.115Z,23.20
2022-11-25T07:54:01.828Z,23.83
2022-11-25T07:56:29.530Z,23.60
2022-11-25T07:58:57.562Z,23.33
2022-11-25T08:01:24.954Z,23.63
2022-11-25T08:03:52.945Z,23.17
2022-11-25T08:06:23.465Z,24.50
2022-11-25T08:08:52.914Z,23.67
2022-11-25T08:11:23.033Z,23.47
2022-11-25T08:13:50.198Z,23.43
2022-11-25T08:16:19.528Z,24.23
2022-11-25T08:18:46.600Z,22.67
2022-11-25T08:21:15.630Z,22.10
2022-11-25T08:23:44.145Z,22.87
2022-11-25T08:26:14.194Z,25.30
2022-11-25T08:28:42.838Z,25.63
2022-11-25T08:31:13.296Z,23.93
2022-11-25T08:33:40.435Z,24.23
2022-11-25T08:36:07.991Z,23.37
2022-11-25T08:38:36.233Z,22.27
2022-11-25T08:41:03.539Z,21.87
2022-11-25T08:43:30.751Z,23.03
2022-11-25T08:45:57.757Z,22.70
2022-11-25T08:48:24.730Z,21.00
2022-11-25T08:50:54.881Z,22.73
2022-11-25T08:53:22.214Z,25.93
2022-11-25T08:55:49.587Z,25.13
2022-11-25T08:58:16.787Z,24.30
2022-11-25T09:00:44.949Z,23.50
2022-11-25T09:03:12.661Z,23.00
2022-11-25T09:05:42.239Z,21.97
2022-11-25T09:08:10.424Z,24.47
2022-11-25T09:10:39.483Z,25.17
2022-11-25T09:13:06.913Z,24.13
2022-11-25T09:15:34.756Z,24.73
2022-11-25T09:18:08.074Z,23.73
2022-11-25T09:20:37.519Z,24.83
2022-11-25T09:23:04.512Z,24.80
2022-11-25T09:25:31.533Z,24.63
2022-11-25T09:27:58.289Z,25.23
2022-11-25T09:30:25.553Z,24.73
2022-11-25T09:32:54.659Z,25.57
2022-11-25T09:35:22.871Z,22.50
2022-11-25T09:37:50.098Z,24.50
2022-11-25T09:40:39.522Z,27.43
2022-11-25T09:43:48.428Z,25.47
2022-11-25T09:46:48.874Z,27.33
2022-11-25T09:49:31.315Z,25.33
2022-11-25T09:52:01.172Z,29.27
2022-11-25T09:54:37.745Z,27.20
2022-11-25T09:57:27.161Z,26.00
2022-11-25T10:00:07.127Z,31.43
2022-11-25T10:02:44.273Z,35.00
2022-11-25T10:05:32.599Z,31.93
2022-11-25T10:08:23.861Z,34.00
2022-11-25T10:10:58.890Z,31.57
2022-11-25T10:13:55.270Z,30.17
2022-11-25T10:16:51.234Z,27.37
2022-11-25T10:19:41.797Z,28.80
2022-11-25T10:22:31.953Z,25.97
2022-11-25T10:25:02.209Z,27.83
2022-11-25T10:27:58.709Z,28.57
2022-11-25T10:30:37.774Z,28.23
2022-11-25T10:33:30.498Z,27.80
2022-11-25T10:36:39.019Z,29.00
2022-11-25T10:39:17.565Z,27.90
2022-11-25T10:42:03.653Z,26.03
2022-11-25T10:44:35.828Z,28.23
2022-11-25T10:47:20.747Z,27.87
2022-11-25T10:50:15.839Z,26.60
2022-11-25T10:52:51.847Z,27.97
2022-11-25T10:55:21.824Z,26.70
2022-11-25T10:57:48.720Z,26.77
2022-11-25T11:00:37.018Z,28.20
2022-11-25T11:03:16.310Z,28.13
2022-11-25T11:05:51.455Z,28.17
2022-11-25T11:08:25.327Z,29.70
2022-11-25T11:11:11.418Z,29.03
2022-11-25T11:13:38.944Z,30.63
2022-11-25T11:16:23.553Z,30.43
2022-11-25T11:18:51.617Z,29.37
2022-11-25T11:21:41.682Z,30.83
2022-11-25T11:24:29.851Z,31.17
2022-11-25T11:27:16.415Z,29.67
2022-11-25T11:29:43.271Z,32.47
2022-11-25T11:32:24.009Z,28.67
2022-11-25T11:34:53.887Z,27.90
2022-11-25T11:37:33.096Z,30.67
2022-11-25T11:40:14.402Z,29.43
2022-11-25T11:43:13.294Z,29.77
2022-11-25T11:45:48.927Z,30.87
2022-11-25T11:48:31.002Z,28.37
2022-11-25T11:51:24.124Z,27.90
2022-11-25T11:54:09.863Z,28.70
2022-11-25T11:56:55.219Z,27.50
2022-11-25T11:59:56.084Z,28.43
2022-11-25T12:02:40.966Z,29.00
2022-11-25T12:05:10.904Z,26.50
2022-11-25T12:07:47.958Z,26.47
2022-11-25T12:10:14.972Z,27.13
2022-11-25T12:12:54.213Z,28.63
2022-11-25T12:15:32.999Z,25.50
2022-11-25T12:18:08.255Z,25.57
2022-11-25T12:21:02.850Z,25.00
2022-11-25T12:24:04.047Z,26.30
2022-11-25T12:26:51.253Z,27.03
2022-11-25T12:29:47.534Z,27.27
2022-11-25T12:32:33.212Z,24.47
2022-11-25T12:35:20.902Z,23.70
2022-11-25T12:38:03.263Z,27.73
2022-11-25T12:40:41.774Z,24.73
2022-11-25T12:43:25.378Z,23.70
2022-11-25T12:46:03.322Z,26.87
2022-11-25T12:48:30.922Z,25.43
2022-11-25T12:51:13.649Z,24.77
2022-11-25T12:53:47.151Z,25.53
2022-11-25T12:56:22.799Z,26.77
2022-11-25T12:59:06.921Z,27.60
2022-11-25T13:02:03.724Z,29.63
2022-11-25T13:04:50.152Z,28.80
2022-11-25T13:07:27.193Z,29.87
2022-11-25T13:10:28.561Z,27.23
2022-11-25T13:13:22.221Z,26.17
2022-11-25T13:15:54.693Z,24.37
2022-11-25T13:18:26.083Z,24.00
2022-11-25T13:20:57.036Z,22.07
2022-11-25T13:23:28.284Z,25.23
2022-11-25T13:26:32.328Z,28.20
2022-11-25T13:29:01.297Z,31.10
2022-11-25T13:31:58.714Z,31.43
2022-11-25T13:34:29.629Z,32.10
2022-11-25T13:37:02.064Z,30.83
2022-11-25T13:39:30.366Z,28.70
2022-11-25T13:42:22.184Z,30.37
2022-11-25T13:44:55.954Z,30.33
2022-11-25T13:47:41.346Z,31.87
2022-11-25T13:50:22.021Z,30.93
2022-11-25T13:52:56.858Z,28.60
2022-11-25T13:55:36.817Z,28.63
2022-11-25T13:58:27.078Z,27.50
2022-11-25T14:01:02.377Z,27.87
2022-11-25T14:03:29.329Z,26.47
2022-11-25T14:06:01.958Z,27.47
2022-11-25T14:08:44.772Z,30.60
2022-11-25T14:11:21.856Z,29.67
2022-11-25T14:13:57.869Z,27.10
2022-11-25T14:16:37.748Z,32.10
2022-11-25T14:19:50.741Z,29.10
2022-11-25T14:22:38.484Z,32.00
2022-11-25T14:25:23.891Z,36.40
2022-11-25T14:28:02.341Z,35.13
2022-11-25T14:30:31.564Z,33.07
2022-11-25T14:33:05.483Z,35.30
2022-11-25T14:35:43.487Z,30.73
2022-11-25T14:38:25.065Z,34.10
2022-11-25T14:40:58.979Z,40.57
2022-11-25T14:43:29.407Z,32.53
2022-11-25T14:46:21.428Z,34.43
2022-11-25T14:49:00.917Z,44.67
2022-11-25T14:51:35.350Z,44.40
2022-11-25T14:54:02.841Z,42.90
2022-11-25T14:56:32.801Z,37.30
2022-11-25T14:59:00.887Z,36.23
2022-11-25T15:01:34.005Z,32.30
2022-11-25T15:04:23.597Z,35.50
2022-11-25T15:07:00.861Z,34.57
2022-11-25T15:09:31.654Z,34.50
2022-11-25T15:12:01.781Z,33.97
2022-11-25T15:14:30.402Z,34.20
2022-11-25T15:16:58.408Z,34.77
2022-11-25T15:19:33.854Z,31.53
2022-11-25T15:22:22.484Z,30.57
2022-11-25T15:24:55.044Z,31.80
2022-11-25T15:27:25.957Z,30.67
2022-11-25T15:29:56.436Z,33.57
2022-11-25T15:32:27.198Z,31.37
2022-11-25T15:34:57.419Z,29.93
2022-11-25T15:37:25.620Z,32.43
2022-11-25T15:40:30.515Z,31.33
2022-11-25T15:43:02.401Z,31.30
2022-11-25T15:46:05.359Z,30.40
2022-11-25T15:48:33.924Z,31.17
2022-11-25T15:51:33.509Z,35.93
2022-11-25T15:54:26.314Z,40.67
2022-11-25T15:56:57.175Z,45.40
2022-11-25T15:59:59.930Z,42.77
2022-11-25T16:02:37.792Z,40.93
2022-11-25T16:05:25.274Z,44.73
2022-11-25T16:07:53.231Z,48.23
2022-11-25T16:10:27.981Z,39.20
2022-11-25T16:13:28.902Z,36.70
2022-11-25T16:16:19.804Z,43.13
2022-11-25T16:18:54.848Z,50.53
2022-11-25T16:21:30.495Z,50.67
2022-11-25T16:24:20.099Z,41.63
2022-11-25T16:27:03.948Z,44.87
2022-11-25T16:29:40.969Z,43.63
2022-11-25T16:32:16.113Z,44.13
2022-11-25T16:34:43.719Z,41.63
2022-11-25T16:37:11.240Z,42.43
2022-11-25T16:39:39.531Z,45.13
2022-11-25T16:42:07.851Z,46.67
2022-11-25T16:44:37.365Z,46.23
2022-11-25T16:47:04.356Z,44.67
2022-11-25T16:49:31.926Z,44.07
2022-11-25T16:51:58.714Z,43.87
2022-11-25T16:54:25.471Z,44.63
2022-11-25T16:56:54.633Z,45.23
2022-11-25T16:59:32.062Z,39.17
2022-11-25T17:02:00.430Z,38.90
2022-11-25T17:04:28.620Z,39.37
2022-11-25T17:07:24.654Z,38.97
2022-11-25T17:09:44.284Z,37.70
2022-11-25T17:12:38.136Z,41.33
2022-11-25T17:15:08.292Z,46.60
2022-11-25T17:17:35.692Z,45.97
2022-11-25T17:20:03.083Z,44.13
2022-11-25T17:22:34.624Z,46.63
2022-11-25T17:25:03.044Z,45.43
2022-11-25T17:27:32.759Z,43.57
2022-11-25T17:30:01.553Z,44.33
2022-11-25T17:32:28.453Z,48.30
2022-11-25T17:34:55.578Z,46.90
2022-11-25T17:37:24.298Z,47.47
2022-11-25T17:39:55.781Z,51.53
2022-11-25T17:42:31.769Z,51.00
2022-11-25T17:44:59.140Z,49.87
2022-11-25T17:47:26.037Z,49.53
2022-11-25T17:49:53.255Z,52.10
2022-11-25T17:52:20.269Z,49.03
2022-11-25T17:54:47.079Z,54.60
2022-11-25T17:57:21.393Z,53.93
2022-11-25T17:59:49.066Z,53.13
2022-11-25T18:02:18.859Z,50.50
2022-11-25T18:04:46.066Z,52.00
2022-11-25T18:07:13.129Z,53.97
2022-11-25T18:09:40.384Z,51.50
2022-11-25T18:12:13.337Z,51.97
2022-11-25T18:14:42.776Z,51.73
2022-11-25T18:17:14.462Z,53.90
2022-11-25T18:19:42.524Z,52.63
2022-11-25T18:22:14.153Z,51.30
2022-11-25T18:24:41.518Z,46.10
2022-11-25T18:27:32.703Z,51.23
2022-11-25T18:30:02.638Z,49.60
2022-11-25T18:32:29.504Z,48.93
2022-11-25T18:34:56.473Z,49.67
2022-11-25T18:37:23.821Z,48.13
2022-11-25T18:39:52.777Z,47.23
2022-11-25T18:42:25.987Z,45.30
2022-11-25T18:44:55.024Z,45.23
2022-11-25T18:47:22.185Z,48.43
2022-11-25T18:49:55.081Z,43.77
2022-11-25T18:52:24.182Z,46.70
2022-11-25T18:54:51.019Z,45.17
2022-11-25T18:57:18.186Z,48.60
2022-11-25T18:59:48.017Z,49.37
2022-11-25T19:02:23.179Z,47.97
2022-11-25T19:04:50.066Z,48.07
2022-11-25T19:07:16.855Z,49.20
2022-11-25T19:09:43.809Z,47.00
2022-11-25T19:12:16.504Z,48.47
2022-11-25T19:14:43.470Z,47.07
2022-11-25T19:17:21.462Z,48.20
2022-11-25T19:19:48.380Z,45.53
2022-11-25T19:22:16.399Z,48.07
2022-11-25T19:24:43.559Z,48.27
2022-11-25T19:27:18.253Z,53.23
2022-11-25T19:29:46.631Z,49.83
2022-11-25T19:32:30.002Z,44.07
2022-11-25T19:35:03.691Z,44.50
2022-11-25T19:37:30.893Z,44.47
2022-11-25T19:39:58.432Z,44.33
2022-11-25T19:42:25.805Z,45.93
2022-11-25T19:44:55.377Z,43.77
2022-11-25T19:47:24.941Z,42.30
2022-11-25T19:49:55.489Z,44.90
2022-11-25T19:52:36.004Z,42.00
2022-11-25T19:55:14.700Z,46.17
2022-11-25T19:57:41.768Z,44.30
2022-11-25T20:00:09.669Z,44.30
2022-11-25T20:02:36.869Z,46.50
2022-11-25T20:05:05.115Z,48.53
2022-11-25T20:07:32.632Z,50.43
2022-11-25T20:10:14.909Z,48.63
2022-11-25T20:12:42.541Z,48.90
2022-11-25T20:15:12.205Z,49.53
2022-11-25T20:17:42.148Z,46.13
2022-11-25T20:20:28.211Z,48.03
2022-11-25T20:23:10.749Z,44.67
2022-11-25T20:25:45.814Z,47.33
2022-11-25T20:28:21.051Z,48.27
2022-11-25T20:30:49.249Z,47.33
2022-11-25T20:33:21.095Z,45.97
2022-11-25T20:35:52.672Z,45.90
2022-11-25T20:38:24.768Z,47.50
2022-11-25T20:40:55.694Z,47.13
2022-11-25T20:43:41.451Z,49.23
2022-11-25T20:46:19.082Z,48.13
2022-11-25T20:48:46.416Z,46.17
2022-11-25T20:51:18.553Z,46.17
2022-11-25T20:53:49.012Z,41.63
2022-11-25T20:56:18.138Z,44.40
2022-11-25T20:58:46.849Z,44.03
2022-11-25T21:01:15.252Z,43.77
2022-11-25T21:03:44.396Z,44.33
2022-11-25T21:06:27.701Z,44.90
2022-11-25T21:08:58.293Z,45.23
2022-11-25T21:11:27.734Z,47.43
2022-11-25T21:13:55.046Z,50.03
2022-11-25T21:16:21.966Z,56.40
2022-11-25T21:18:48.956Z,52.33
2022-11-25T21:21:37.184Z,52.70
2022-11-25T21:24:31.332Z,50.67
2022-11-25T21:27:02.464Z,49.60
2022-11-25T21:29:31.509Z,45.50
2022-11-25T21:31:58.337Z,46.50
2022-11-25T21:34:25.628Z,48.57
2022-11-25T21:36:55.310Z,45.87
2022-11-25T21:39:33.925Z,46.77
2022-11-25T21:42:04.744Z,50.17
2022-11-25T21:44:35.256Z,48.03
2022-11-25T21:47:03.028Z,55.50
2022-11-25T21:49:29.872Z,56.37
2022-11-25T21:51:56.783Z,52.23
2022-11-25T21:54:23.546Z,47.90
2022-11-25T21:56:52.186Z,49.83
2022-11-25T21:59:20.343Z,46.33
2022-11-25T22:01:48.149Z,46.23
2022-11-25T22:04:17.902Z,47.07
2022-11-25T22:06:48.017Z,47.70
2022-11-25T22:09:15.222Z,48.43
2022-11-25T22:11:49.115Z,47.70
2022-11-25T22:14:28.735Z,49.30
2022-11-25T22:16:57.091Z,46.90
2022-11-25T22:19:27.413Z,48.23
2022-11-25T22:21:55.333Z,46.77
2022-11-25T22:24:23.575Z,47.93
2022-11-25T22:26:57.881Z,45.70
2022-11-25T22:29:31.924Z,45.70
2022-11-25T22:32:00.146Z,47.00
2022-11-25T22:34:27.065Z,46.00
2022-11-25T22:36:53.940Z,42.40
2022-11-25T22:39:25.308Z,43.67
2022-11-25T22:41:53.920Z,43.07
2022-11-25T22:44:46.002Z,42.17
2022-11-25T22:47:30.757Z,42.03
2022-11-25T22:50:01.022Z,41.03
2022-11-25T22:52:31.300Z,43.93
2022-11-25T22:55:02.270Z,42.77
2022-11-25T22:57:29.343Z,41.60
2022-11-25T22:59:56.197Z,42.23
2022-11-25T23:02:29.650Z,44.47
2022-11-25T23:04:56.893Z,42.37
2022-11-25T23:07:24.916Z,44.33
2022-11-25T23:09:52.602Z,46.00
2022-11-25T23:12:20.686Z,40.10
2022-11-25T23:14:47.664Z,42.93
2022-11-25T23:17:25.735Z,41.43
2022-11-25T23:19:53.223Z,45.00
2022-11-25T23:22:20.646Z,41.73
2022-11-25T23:24:48.754Z,39.23
2022-11-25T23:27:29.873Z,39.23
2022-11-25T23:29:57.076Z,38.27
2022-11-25T23:32:24.102Z,42.00
2022-11-25T23:34:53.086Z,44.93
2022-11-25T23:37:19.990Z,43.23
2022-11-25T23:39:50.775Z,42.83
2022-11-25T23:42:19.571Z,44.43
2022-11-25T23:44:48.425Z,41.13
2022-11-25T23:47:22.167Z,45.90
2022-11-25T23:49:52.338Z,41.67
2022-11-25T23:52:26.695Z,46.83
2022-11-25T23:54:54.080Z,41.33
2022-11-25T23:57:29.814Z,42.47
2022-11-25T23:59:57.976Z,41.93
